Time;durP1;ratioP1;P1;durP2;ratioP2;P2;SDS_P1;SDS_P2;PMS_P1;PMS_P2;Temp;Humidity;BMP_temperature;BMP_pressure;BME280_temperature;BME280_humidity;BME280_pressure;Samples;Min_cycle;Max_cycle;Signal;HPM_P1;HPM_P2
2023/05/03 00:02:11;;;;;;;6.32;2.00;;;4.40;85.80;;;;;;5023414;28;20061;-73
2023/05/03 00:04:37;;;;;;;2.75;1.80;;;4.40;85.50;;;;;;5024240;28;20040;-74
2023/05/03 00:07:03;;;;;;;3.58;1.77;;;4.40;85.40;;;;;;5025381;28;20042;-73
2023/05/03 00:09:29;;;;;;;3.50;2.17;;;4.50;85.30;;;;;;5023046;28;20064;-74
2023/05/03 00:11:55;;;;;;;3.25;1.80;;;4.60;85.90;;;;;;5019178;28;20077;-74
2023/05/03 00:14:20;;;;;;;4.97;2.05;;;4.60;85.70;;;;;;5020773;28;20480;-73
2023/05/03 00:16:46;;;;;;;3.53;1.88;;;4.70;85.60;;;;;;5030501;28;20037;-74
2023/05/03 00:19:11;;;;;;;3.38;1.63;;;4.70;86.00;;;;;;5022210;28;20053;-73
2023/05/03 00:21:37;;;;;;;3.83;1.77;;;4.80;86.20;;;;;;5022143;28;20033;-73
2023/05/03 00:24:03;;;;;;;3.90;2.17;;;4.80;85.70;;;;;;5015386;28;20072;-74
2023/05/03 00:26:28;;;;;;;3.78;1.77;;;4.80;85.60;;;;;;5019006;28;20033;-73
2023/05/03 00:28:54;;;;;;;5.28;2.58;;;4.80;85.60;;;;;;5023329;28;20045;-74
2023/05/03 00:31:19;;;;;;;4.53;1.95;;;4.80;85.50;;;;;;5023389;28;20132;-73
2023/05/03 00:33:45;;;;;;;3.20;1.92;;;4.80;85.70;;;;;;5012092;28;20053;-73
2023/05/03 00:36:12;;;;;;;4.68;2.13;;;4.80;86.60;;;;;;5016133;28;20054;-73
2023/05/03 00:38:39;;;;;;;4.70;1.88;;;4.80;86.60;;;;;;5011971;28;20061;-74
2023/05/03 00:41:05;;;;;;;3.25;2.05;;;4.90;86.50;;;;;;5012450;28;20053;-73
2023/05/03 00:43:32;;;;;;;6.88;2.60;;;4.90;86.50;;;;;;5018374;28;20033;-73
2023/05/03 00:46:00;;;;;;;4.97;2.20;;;5.00;86.50;;;;;;4995697;28;20045;-74
2023/05/03 00:48:26;;;;;;;5.63;2.42;;;5.00;86.40;;;;;;5011671;28;20056;-73
2023/05/03 00:50:53;;;;;;;4.80;2.10;;;4.90;86.00;;;;;;5024240;28;20123;-73
2023/05/03 00:53:21;;;;;;;3.55;1.95;;;4.90;86.00;;;;;;5007167;28;20473;-73
2023/05/03 00:55:49;;;;;;;5.15;2.30;;;4.80;86.00;;;;;;5001291;28;20378;-73
2023/05/03 00:58:15;;;;;;;3.17;2.33;;;4.80;86.00;;;;;;5018119;28;20047;-73
2023/05/03 01:00:40;;;;;;;4.55;2.55;;;4.70;86.20;;;;;;5024420;28;20037;-73
2023/05/03 01:03:06;;;;;;;5.32;2.28;;;4.60;86.70;;;;;;5022486;28;20045;-73
2023/05/03 01:05:41;;;;;;;6.30;2.63;;;4.60;87.10;;;;;;5024064;28;20460;-72
2023/05/03 01:08:30;;;;;;;4.88;2.50;;;4.60;87.30;;;;;;5023859;28;20057;-73
2023/05/03 01:11:06;;;;;;;5.38;2.50;;;4.60;88.50;;;;;;5006776;28;20060;-73
2023/05/03 01:13:41;;;;;;;5.88;2.55;;;4.60;88.00;;;;;;5015609;28;20045;-73
2023/05/03 01:16:37;;;;;;;5.03;2.65;;;4.70;87.60;;;;;;5020188;28;20049;-73
2023/05/03 01:19:23;;;;;;;4.50;2.42;;;4.70;88.50;;;;;;5030746;28;20049;-73
2023/05/03 01:22:02;;;;;;;4.85;2.40;;;4.70;88.00;;;;;;5025681;28;20041;-73
2023/05/03 01:24:30;;;;;;;6.05;2.63;;;4.70;87.90;;;;;;5024229;28;20080;-74
2023/05/03 01:26:56;;;;;;;3.42;2.20;;;4.70;87.40;;;;;;5006558;28;20034;-73
2023/05/03 01:29:22;;;;;;;4.35;2.17;;;4.70;87.50;;;;;;5024032;28;20091;-73
2023/05/03 01:32:02;;;;;;;3.75;2.25;;;4.80;87.80;;;;;;5018242;28;20060;-73
2023/05/03 01:34:47;;;;;;;6.53;2.60;;;4.80;88.60;;;;;;5010591;28;20041;-73
2023/05/03 01:37:13;;;;;;;5.40;2.63;;;4.80;88.20;;;;;;5002958;28;20038;-73
2023/05/03 01:39:58;;;;;;;6.10;2.45;;;4.80;87.60;;;;;;5006291;28;20064;-72
2023/05/03 01:42:25;;;;;;;5.60;2.53;;;4.90;89.10;;;;;;5027282;28;20048;-73
2023/05/03 01:44:53;;;;;;;4.68;2.42;;;4.90;87.60;;;;;;5022939;28;20037;-72
2023/05/03 01:47:19;;;;;;;4.32;2.60;;;5.00;87.70;;;;;;5015448;28;20444;-73
2023/05/03 01:49:45;;;;;;;7.93;3.00;;;5.00;87.60;;;;;;5013755;28;20796;-72
2023/05/03 01:52:10;;;;;;;7.13;2.80;;;5.10;87.70;;;;;;5011007;28;20041;-72
2023/05/03 01:54:36;;;;;;;3.78;2.47;;;5.20;87.50;;;;;;5025542;28;20040;-72
2023/05/03 01:57:02;;;;;;;3.30;2.70;;;5.20;87.30;;;;;;5017740;28;20036;-73
2023/05/03 01:59:28;;;;;;;5.60;2.72;;;5.20;87.00;;;;;;5025052;28;20039;-72
2023/05/03 02:01:53;;;;;;;5.28;3.20;;;5.20;87.10;;;;;;5020196;28;20141;-72
2023/05/03 02:04:19;;;;;;;4.88;2.88;;;5.20;86.90;;;;;;5014252;28;20040;-73
2023/05/03 02:06:44;;;;;;;7.03;3.13;;;5.20;87.10;;;;;;5027838;28;20112;-73
2023/05/03 02:09:10;;;;;;;5.15;3.05;;;5.20;88.00;;;;;;5006255;28;20059;-72
2023/05/03 02:11:36;;;;;;;3.90;2.90;;;5.20;87.30;;;;;;5022008;28;20047;-73
2023/05/03 02:14:01;;;;;;;6.25;3.42;;;5.20;87.20;;;;;;5025833;28;20041;-72
2023/05/03 02:16:27;;;;;;;7.22;3.65;;;5.20;87.10;;;;;;5029347;28;20494;-72
2023/05/03 02:18:58;;;;;;;4.18;3.33;;;5.20;87.20;;;;;;5017863;28;20123;-73
2023/05/03 02:21:24;;;;;;;7.07;3.25;;;5.20;87.30;;;;;;5019582;28;20588;-73
2023/05/03 02:23:50;;;;;;;7.65;3.22;;;5.10;87.10;;;;;;5026695;28;20550;-73
2023/05/03 02:26:16;;;;;;;6.32;3.10;;;5.10;87.20;;;;;;5009812;28;20176;-72
2023/05/03 02:28:41;;;;;;;5.63;3.30;;;5.10;87.20;;;;;;5020424;28;20045;-73
2023/05/03 02:31:07;;;;;;;7.68;3.33;;;5.10;87.50;;;;;;5022189;28;20045;-72
2023/05/03 02:33:33;;;;;;;5.25;3.10;;;5.20;87.60;;;;;;5022971;28;20135;-72
2023/05/03 02:35:59;;;;;;;7.95;3.25;;;5.20;87.60;;;;;;5019127;28;20497;-72
2023/05/03 02:38:24;;;;;;;6.50;2.90;;;5.20;87.70;;;;;;5010107;28;20448;-73
2023/05/03 02:40:50;;;;;;;6.43;3.08;;;5.10;87.80;;;;;;4996687;28;20042;-73
2023/05/03 02:43:16;;;;;;;7.38;3.20;;;5.10;88.10;;;;;;5014274;28;20038;-72
2023/05/03 02:45:44;;;;;;;4.38;2.55;;;5.10;87.80;;;;;;5014236;28;20065;-72
2023/05/03 02:48:11;;;;;;;6.38;2.85;;;5.10;88.20;;;;;;5013784;28;20095;-73
2023/05/03 02:50:38;;;;;;;3.97;2.42;;;5.10;88.10;;;;;;5020360;28;20049;-72
2023/05/03 02:53:04;;;;;;;5.90;3.08;;;5.10;88.50;;;;;;5025043;28;20069;-73
2023/05/03 02:55:30;;;;;;;4.68;3.00;;;5.00;88.20;;;;;;5026928;28;20116;-72
2023/05/03 02:57:56;;;;;;;4.47;3.03;;;5.00;88.30;;;;;;5026574;28;20503;-72
2023/05/03 03:00:21;;;;;;;5.78;2.70;;;5.00;88.60;;;;;;5007024;28;20053;-72
2023/05/03 03:02:47;;;;;;;4.05;2.88;;;5.00;88.70;;;;;;5023814;28;20480;-72
2023/05/03 03:05:13;;;;;;;7.13;3.15;;;5.00;88.50;;;;;;5005892;28;20543;-72
2023/05/03 03:07:39;;;;;;;7.30;3.03;;;5.00;88.90;;;;;;5024498;28;20124;-72
2023/05/03 03:10:06;;;;;;;6.80;3.03;;;4.90;89.10;;;;;;5026661;28;20263;-73
2023/05/03 03:12:32;;;;;;;6.32;3.33;;;4.90;89.10;;;;;;5023211;28;20041;-73
2023/05/03 03:14:57;;;;;;;5.30;3.13;;;4.80;89.10;;;;;;5014664;28;20069;-72
2023/05/03 03:17:23;;;;;;;3.58;2.88;;;4.80;89.10;;;;;;5015162;28;20381;-73
2023/05/03 03:19:48;;;;;;;6.13;3.17;;;4.80;89.30;;;;;;5023534;28;20042;-72
2023/05/03 03:22:14;;;;;;;6.53;2.88;;;4.90;89.50;;;;;;5018473;28;20124;-73
2023/05/03 03:24:40;;;;;;;5.68;3.17;;;4.80;89.40;;;;;;5013144;28;20113;-72
2023/05/03 03:27:05;;;;;;;4.82;3.13;;;4.80;89.30;;;;;;5030353;28;20037;-73
2023/05/03 03:29:32;;;;;;;5.72;3.17;;;4.80;90.00;;;;;;5016991;28;20074;-73
2023/05/03 03:31:58;;;;;;;6.07;3.40;;;4.80;89.70;;;;;;5019037;28;20125;-72
2023/05/03 03:34:24;;;;;;;5.63;3.20;;;4.80;90.00;;;;;;4992484;28;20121;-73
2023/05/03 03:36:49;;;;;;;5.40;3.30;;;4.70;90.30;;;;;;5024698;28;20045;-73
2023/05/03 03:39:15;;;;;;;6.70;3.78;;;4.80;90.10;;;;;;5001110;28;20087;-73
2023/05/03 03:41:41;;;;;;;7.32;3.00;;;4.70;89.80;;;;;;5017414;28;20394;-72
2023/05/03 03:44:07;;;;;;;5.25;3.20;;;4.70;90.00;;;;;;5012016;28;20120;-72
2023/05/03 03:46:33;;;;;;;8.23;3.33;;;4.80;90.10;;;;;;5017653;28;20041;-72
2023/05/03 03:48:58;;;;;;;3.40;2.78;;;4.80;90.00;;;;;;5010291;28;20080;-72
2023/05/03 03:51:24;;;;;;;8.25;3.65;;;4.70;90.20;;;;;;5026961;28;23097;-73
2023/05/03 03:53:50;;;;;;;4.57;3.20;;;4.80;90.30;;;;;;5000737;28;20618;-72
2023/05/03 03:56:16;;;;;;;4.82;3.35;;;4.80;90.10;;;;;;5010981;28;20489;-73
2023/05/03 03:58:41;;;;;;;6.00;3.17;;;4.80;90.40;;;;;;5020790;28;20044;-72
2023/05/03 04:01:07;;;;;;;5.55;2.78;;;4.80;90.40;;;;;;5021414;28;20125;-73
2023/05/03 04:03:32;;;;;;;5.97;3.67;;;4.90;90.50;;;;;;4998365;28;20076;-72
2023/05/03 04:05:58;;;;;;;5.18;3.17;;;5.00;90.50;;;;;;5025794;28;20088;-72
2023/05/03 04:08:23;;;;;;;9.82;3.60;;;5.00;90.50;;;;;;5004436;28;20045;-73
2023/05/03 04:10:49;;;;;;;5.28;3.50;;;5.00;90.60;;;;;;5021448;28;20038;-72
2023/05/03 04:13:15;;;;;;;5.35;3.00;;;5.00;90.70;;;;;;4997149;28;20081;-72
2023/05/03 04:15:41;;;;;;;8.02;3.00;;;5.10;90.70;;;;;;5030262;28;20373;-72
2023/05/03 04:18:07;;;;;;;4.50;2.88;;;5.10;90.50;;;;;;5014357;28;20042;-72
2023/05/03 04:20:34;;;;;;;5.45;2.70;;;5.20;90.50;;;;;;5028734;28;20119;-72
2023/05/03 04:23:00;;;;;;;5.40;2.80;;;5.20;90.80;;;;;;5030415;28;20091;-72
2023/05/03 04:25:26;;;;;;;6.00;3.33;;;5.20;90.40;;;;;;5019666;28;20037;-72
2023/05/03 04:27:52;;;;;;;5.95;3.33;;;5.30;90.50;;;;;;4998265;28;20038;-72
2023/05/03 04:30:18;;;;;;;8.73;3.10;;;5.30;90.50;;;;;;5022523;28;20555;-72
2023/05/03 04:32:46;;;;;;;7.43;3.72;;;5.30;90.50;;;;;;5029346;28;20094;-73
2023/05/03 04:35:11;;;;;;;7.90;3.67;;;5.40;90.60;;;;;;4996145;28;20129;-73
2023/05/03 04:37:38;;;;;;;7.70;3.55;;;5.40;90.50;;;;;;5011588;28;20592;-72
2023/05/03 04:40:11;;;;;;;6.70;3.53;;;5.50;90.50;;;;;;5009748;28;20096;-72
2023/05/03 04:42:37;;;;;;;5.47;3.20;;;5.50;90.50;;;;;;5019916;28;20045;-72
2023/05/03 04:45:05;;;;;;;6.78;3.05;;;5.50;90.70;;;;;;4996389;28;20457;-72
2023/05/03 04:47:31;;;;;;;5.25;3.25;;;5.60;90.50;;;;;;5011133;28;20091;-72
2023/05/03 04:49:57;;;;;;;4.50;3.00;;;5.60;90.40;;;;;;5023604;28;20029;-72
2023/05/03 04:52:25;;;;;;;5.35;3.40;;;5.60;90.40;;;;;;5025814;28;20091;-72
2023/05/03 04:54:51;;;;;;;7.55;3.65;;;5.70;90.50;;;;;;5025747;28;20041;-72
2023/05/03 04:57:16;;;;;;;8.25;3.67;;;5.80;90.40;;;;;;5013056;28;20052;-72
2023/05/03 04:59:42;;;;;;;6.45;3.30;;;5.80;90.30;;;;;;5012521;28;20042;-72
2023/05/03 05:02:07;;;;;;;5.53;3.08;;;5.90;90.20;;;;;;5014133;28;20041;-72
2023/05/03 05:04:33;;;;;;;6.32;3.50;;;5.90;90.20;;;;;;5019358;28;20070;-72
2023/05/03 05:06:59;;;;;;;4.28;3.20;;;6.00;90.10;;;;;;5012115;28;20037;-72
2023/05/03 05:09:29;;;;;;;6.03;3.70;;;6.00;90.10;;;;;;5004791;28;20045;-72
2023/05/03 05:11:56;;;;;;;5.50;3.20;;;6.10;90.10;;;;;;5012665;28;20047;-72
2023/05/03 05:14:21;;;;;;;6.57;3.28;;;6.10;90.00;;;;;;5008303;28;20040;-72
2023/05/03 05:16:47;;;;;;;4.93;2.72;;;6.20;89.90;;;;;;5015832;28;20424;-72
2023/05/03 05:19:13;;;;;;;5.90;2.95;;;6.20;89.80;;;;;;5028637;28;20493;-72
2023/05/03 05:21:39;;;;;;;6.18;3.08;;;6.20;89.60;;;;;;5013301;28;20122;-72
2023/05/03 05:24:04;;;;;;;5.20;2.95;;;6.20;89.60;;;;;;5023316;28;20030;-72
2023/05/03 05:26:30;;;;;;;8.68;3.20;;;6.30;89.40;;;;;;5031484;28;20550;-72
2023/05/03 05:28:56;;;;;;;9.95;3.20;;;6.30;89.50;;;;;;5025726;28;20065;-72
2023/05/03 05:31:23;;;;;;;8.68;3.05;;;6.40;89.40;;;;;;5021789;28;20056;-72
2023/05/03 05:33:48;;;;;;;7.30;3.70;;;6.50;89.10;;;;;;5017015;28;20137;-72
2023/05/03 05:36:14;;;;;;;4.38;3.38;;;6.60;89.40;;;;;;5029005;28;20061;-72
2023/05/03 05:38:40;;;;;;;8.35;3.30;;;6.70;89.20;;;;;;5026962;28;20053;-72
2023/05/03 05:41:06;;;;;;;8.93;4.10;;;6.80;88.80;;;;;;5008274;28;20419;-72
2023/05/03 05:43:31;;;;;;;6.20;3.35;;;6.80;88.50;;;;;;5025000;28;20042;-72
2023/05/03 05:45:57;;;;;;;6.50;3.78;;;6.90;88.10;;;;;;5010448;28;20397;-72
2023/05/03 05:48:23;;;;;;;4.20;3.13;;;7.00;87.70;;;;;;5018104;28;20405;-72
2023/05/03 05:50:48;;;;;;;5.60;3.30;;;7.10;87.70;;;;;;5022396;28;20374;-72
2023/05/03 05:53:14;;;;;;;4.97;3.80;;;7.20;87.30;;;;;;5000226;28;20251;-71
2023/05/03 05:55:39;;;;;;;6.63;3.60;;;7.30;86.90;;;;;;5029545;28;20036;-71
2023/05/03 05:58:05;;;;;;;4.65;3.47;;;7.40;86.60;;;;;;5026657;28;20572;-72
2023/05/03 06:00:31;;;;;;;5.85;3.60;;;7.50;86.20;;;;;;5021431;28;20134;-72
2023/05/03 06:02:56;;;;;;;6.95;3.40;;;7.60;86.10;;;;;;5017670;28;20498;-71
2023/05/03 06:05:22;;;;;;;8.85;3.45;;;7.70;86.00;;;;;;5021028;28;20389;-72
2023/05/03 06:07:48;;;;;;;4.72;3.25;;;7.90;85.90;;;;;;4999649;28;20033;-71
2023/05/03 06:10:14;;;;;;;5.97;3.03;;;7.90;85.70;;;;;;5029761;28;20041;-72
2023/05/03 06:12:40;;;;;;;5.53;2.83;;;8.00;85.40;;;;;;5022852;28;20041;-72
2023/05/03 06:15:06;;;;;;;5.70;2.97;;;8.10;84.70;;;;;;5017690;28;20049;-72
2023/05/03 06:17:32;;;;;;;4.68;3.15;;;8.20;83.80;;;;;;5011496;28;20144;-72
2023/05/03 06:19:57;;;;;;;5.22;2.80;;;8.20;82.80;;;;;;5013753;28;20046;-72
2023/05/03 06:22:24;;;;;;;4.78;2.97;;;8.20;82.10;;;;;;5030971;28;20453;-71
2023/05/03 06:24:50;;;;;;;4.50;2.50;;;8.20;81.90;;;;;;5030514;28;20030;-71
2023/05/03 06:27:15;;;;;;;6.53;3.22;;;8.30;81.80;;;;;;5013334;28;20414;-72
2023/05/03 06:29:43;;;;;;;5.85;3.58;;;8.40;81.20;;;;;;4993505;28;20050;-71
2023/05/03 06:32:08;;;;;;;4.22;2.08;;;8.60;80.60;;;;;;4995111;28;20437;-72
2023/05/03 06:34:34;;;;;;;3.22;1.90;;;8.60;79.90;;;;;;5001878;28;20100;-72
2023/05/03 06:36:59;;;;;;;3.70;2.10;;;8.70;78.50;;;;;;5014364;28;20046;-72
2023/05/03 06:39:25;;;;;;;3.20;2.25;;;8.80;77.90;;;;;;5008423;28;20068;-71
2023/05/03 06:41:51;;;;;;;4.63;2.28;;;8.90;77.30;;;;;;5010264;28;20069;-72
2023/05/03 06:44:16;;;;;;;3.97;2.20;;;8.90;76.70;;;;;;5015763;28;20424;-71
2023/05/03 06:46:42;;;;;;;1.83;1.70;;;8.90;75.60;;;;;;5005690;28;20045;-72
2023/05/03 06:49:07;;;;;;;2.85;2.03;;;9.00;74.90;;;;;;5008901;28;20088;-72
2023/05/03 06:51:33;;;;;;;2.58;1.60;;;9.00;74.50;;;;;;5011096;28;20034;-72
2023/05/03 06:54:05;;;;;;;3.78;1.60;;;9.10;74.30;;;;;;5010332;28;20038;-72
2023/05/03 06:56:34;;;;;;;4.18;1.60;;;9.10;74.10;;;;;;5010042;28;20038;-72
2023/05/03 06:59:00;;;;;;;3.60;1.90;;;9.20;74.30;;;;;;5026961;28;20034;-72
2023/05/03 07:01:26;;;;;;;3.25;1.42;;;9.30;74.20;;;;;;5012089;28;20069;-72
2023/05/03 07:03:51;;;;;;;4.43;1.63;;;9.30;74.00;;;;;;4998437;28;20062;-72
2023/05/03 07:06:17;;;;;;;3.10;1.48;;;9.40;73.40;;;;;;4994146;28;20072;-72
2023/05/03 07:08:43;;;;;;;3.60;1.30;;;9.40;73.10;;;;;;5014492;28;20053;-72
2023/05/03 07:11:09;;;;;;;6.05;1.40;;;9.50;72.60;;;;;;5014439;28;20040;-72
2023/05/03 07:13:34;;;;;;;2.47;1.42;;;9.60;72.20;;;;;;5024624;28;20045;-72
2023/05/03 07:16:00;;;;;;;3.28;1.67;;;9.60;71.90;;;;;;5010349;28;20040;-72
2023/05/03 07:18:26;;;;;;;3.88;1.50;;;9.70;71.50;;;;;;5004113;28;20042;-72
2023/05/03 07:20:52;;;;;;;3.78;1.60;;;9.80;71.50;;;;;;5013471;28;20492;-72
2023/05/03 07:23:18;;;;;;;3.75;1.65;;;9.80;71.50;;;;;;5014764;28;20049;-72
2023/05/03 07:25:44;;;;;;;4.90;1.50;;;9.90;71.30;;;;;;5012011;28;20033;-72
2023/05/03 07:28:10;;;;;;;3.45;1.52;;;10.00;71.10;;;;;;5009758;28;20042;-73
2023/05/03 07:30:36;;;;;;;2.10;1.60;;;10.00;70.90;;;;;;4999380;28;20492;-73
2023/05/03 07:33:02;;;;;;;3.92;1.63;;;10.10;70.70;;;;;;4999809;28;20124;-71
2023/05/03 07:35:27;;;;;;;2.10;1.60;;;10.10;70.20;;;;;;5027035;28;20388;-72
2023/05/03 07:37:53;;;;;;;2.88;1.50;;;10.10;70.10;;;;;;5017275;28;20045;-72
2023/05/03 07:40:18;;;;;;;2.33;1.90;;;10.10;69.70;;;;;;5006215;28;20127;-73
2023/05/03 07:42:45;;;;;;;4.03;1.63;;;10.10;69.70;;;;;;5018450;28;20057;-73
2023/05/03 07:45:10;;;;;;;4.82;1.70;;;10.20;69.30;;;;;;5018792;28;20472;-71
2023/05/03 07:47:38;;;;;;;2.55;1.73;;;10.20;69.00;;;;;;5033019;28;20133;-71
2023/05/03 07:50:04;;;;;;;3.58;1.80;;;10.30;68.50;;;;;;5031812;28;20038;-73
2023/05/03 07:52:38;;;;;;;2.85;1.50;;;10.30;67.70;;;;;;5000907;28;20042;-73
2023/05/03 07:55:05;;;;;;;4.15;1.38;;;10.30;66.40;;;;;;5019838;28;20036;-73
2023/05/03 07:57:31;;;;;;;3.17;1.48;;;10.40;66.50;;;;;;4999332;28;20037;-72
2023/05/03 07:59:56;;;;;;;1.75;1.40;;;10.30;66.20;;;;;;5003798;28;20082;-72
2023/05/03 08:02:22;;;;;;;2.33;1.30;;;10.40;65.80;;;;;;5012855;28;20034;-72
2023/05/03 08:04:48;;;;;;;3.08;1.30;;;10.40;65.60;;;;;;4995607;28;20766;-72
2023/05/03 08:07:13;;;;;;;4.20;1.85;;;10.50;65.40;;;;;;5017195;28;20106;-72
2023/05/03 08:09:40;;;;;;;3.25;1.60;;;10.50;65.10;;;;;;5028862;28;20544;-72
2023/05/03 08:12:06;;;;;;;2.90;1.70;;;10.50;64.10;;;;;;5002368;28;20053;-71
2023/05/03 08:14:32;;;;;;;2.50;1.65;;;10.50;63.80;;;;;;5010886;28;20057;-72
2023/05/03 08:16:58;;;;;;;5.18;2.03;;;10.60;63.40;;;;;;5010302;28;20041;-72
2023/05/03 08:19:24;;;;;;;5.32;1.88;;;10.70;63.20;;;;;;4994260;28;20370;-72
2023/05/03 08:21:53;;;;;;;5.35;1.80;;;10.80;63.70;;;;;;5024737;28;20397;-71
2023/05/03 08:24:19;;;;;;;2.55;1.65;;;10.80;63.00;;;;;;5012076;28;20080;-72
2023/05/03 08:26:47;;;;;;;2.33;1.70;;;10.80;63.00;;;;;;5014755;28;20042;-71
2023/05/03 08:29:15;;;;;;;3.92;1.80;;;11.00;63.10;;;;;;5022195;28;20041;-72
2023/05/03 08:31:41;;;;;;;3.03;1.90;;;10.80;62.30;;;;;;4994451;28;20136;-70
2023/05/03 08:34:09;;;;;;;3.38;1.90;;;10.80;61.70;;;;;;5007393;28;20140;-70
2023/05/03 08:36:36;;;;;;;2.08;1.88;;;11.00;60.90;;;;;;5018904;28;20500;-71
2023/05/03 08:39:05;;;;;;;2.65;1.73;;;11.00;60.90;;;;;;5019310;28;20054;-71
2023/05/03 08:41:31;;;;;;;5.95;1.90;;;11.00;60.80;;;;;;5011708;28;20103;-72
2023/05/03 08:43:58;;;;;;;4.28;2.20;;;11.10;60.20;;;;;;5010904;28;20116;-71
2023/05/03 08:46:24;;;;;;;3.42;1.90;;;11.10;59.70;;;;;;4993958;28;20503;-71
2023/05/03 08:48:51;;;;;;;3.42;2.15;;;11.10;59.60;;;;;;5016620;28;20041;-71
2023/05/03 08:51:18;;;;;;;2.38;2.10;;;11.30;59.30;;;;;;5006859;28;20041;-71
2023/05/03 08:53:44;;;;;;;2.90;1.83;;;11.30;58.50;;;;;;5009997;28;20038;-71
2023/05/03 08:56:11;;;;;;;4.32;2.08;;;11.40;58.60;;;;;;5011667;28;20042;-72
2023/05/03 08:58:37;;;;;;;4.05;2.10;;;11.70;58.60;;;;;;5005019;28;20045;-73
2023/05/03 09:01:08;;;;;;;2.85;2.00;;;11.80;58.70;;;;;;5029899;28;20408;-72
2023/05/03 09:03:35;;;;;;;2.17;1.77;;;12.00;58.50;;;;;;5026804;28;20547;-71
2023/05/03 09:06:01;;;;;;;3.72;1.98;;;12.00;58.70;;;;;;5009924;28;20046;-72
2023/05/03 09:08:28;;;;;;;2.08;1.60;;;12.10;58.00;;;;;;5029241;28;20037;-72
2023/05/03 09:10:53;;;;;;;3.58;1.80;;;11.80;57.40;;;;;;5011054;28;20049;-71
2023/05/03 09:13:19;;;;;;;4.53;1.98;;;11.80;57.50;;;;;;5013671;28;20099;-71
2023/05/03 09:15:54;;;;;;;3.10;2.10;;;11.80;57.60;;;;;;5012040;28;20436;-71
2023/05/03 09:18:21;;;;;;;4.32;1.83;;;11.80;56.60;;;;;;4995973;28;20049;-71
2023/05/03 09:20:50;;;;;;;3.70;2.00;;;11.80;57.30;;;;;;5020125;28;20612;-70
2023/05/03 09:23:29;;;;;;;4.15;1.85;;;12.00;56.90;;;;;;5006549;28;20589;-72
2023/05/03 09:25:55;;;;;;;4.68;1.85;;;12.20;55.70;;;;;;5029281;28;20099;-71
2023/05/03 09:28:21;;;;;;;3.00;1.67;;;12.30;56.30;;;;;;5010991;28;20041;-72
2023/05/03 09:30:48;;;;;;;5.60;1.98;;;12.40;55.90;;;;;;5028237;28;20072;-73
2023/05/03 09:33:20;;;;;;;6.35;2.30;;;12.60;56.00;;;;;;5027239;28;20091;-71
2023/05/03 09:36:02;;;;;;;4.32;2.05;;;12.80;55.30;;;;;;5016119;28;20045;-71
2023/05/03 09:38:32;;;;;;;2.70;1.45;;;12.80;53.00;;;;;;5012350;28;20041;-72
2023/05/03 09:40:58;;;;;;;2.17;1.92;;;12.90;54.80;;;;;;5029420;28;20171;-71
2023/05/03 09:43:24;;;;;;;4.18;1.70;;;13.00;54.60;;;;;;5028526;28;20120;-71
2023/05/03 09:45:50;;;;;;;3.72;1.85;;;13.10;54.40;;;;;;5009533;28;20449;-70
2023/05/03 09:48:16;;;;;;;2.85;1.60;;;13.40;54.10;;;;;;5026552;28;20037;-70
2023/05/03 09:50:42;;;;;;;3.47;1.83;;;13.30;53.40;;;;;;5027958;28;20045;-70
2023/05/03 09:53:08;;;;;;;2.97;1.98;;;13.30;53.20;;;;;;5009853;28;20412;-71
2023/05/03 09:55:38;;;;;;;2.72;1.60;;;13.50;52.30;;;;;;5012130;28;20164;-70
2023/05/03 09:58:07;;;;;;;;;;;13.90;51.60;;;;;;5010942;28;20042;-71
2023/05/03 10:00:41;;;;;;;3.40;1.70;;;13.80;48.40;;;;;;5017793;28;19996;-69
2023/05/03 10:03:11;;;;;;;7.63;1.83;;;13.60;51.30;;;;;;5026408;28;20483;-72
2023/05/03 10:05:48;;;;;;;3.88;1.48;;;13.80;50.80;;;;;;5016083;28;20053;-71
2023/05/03 10:08:39;;;;;;;3.78;1.60;;;14.30;50.20;;;;;;5017561;28;20053;-70
2023/05/03 10:11:07;;;;;;;4.10;1.55;;;15.10;47.40;;;;;;5017621;28;20393;-71
2023/05/03 10:13:34;;;;;;;2.92;1.80;;;15.10;48.70;;;;;;5012899;28;20037;-71
2023/05/03 10:16:08;;;;;;;2.85;1.85;;;14.80;49.00;;;;;;5007942;28;20038;-71
2023/05/03 10:18:42;;;;;;;4.70;1.63;;;14.70;48.30;;;;;;5013347;28;20091;-70
2023/05/03 10:21:13;;;;;;;4.10;1.80;;;14.40;49.00;;;;;;4993772;28;20053;-71
2023/05/03 10:24:24;;;;;;;2.42;1.70;;;14.20;48.70;;;;;;5024511;28;20591;-70
2023/05/03 10:26:50;;;;;;;4.55;1.45;;;15.20;46.60;;;;;;5008456;28;20045;-71
2023/05/03 10:29:34;;;;;;;2.42;1.90;;;16.00;47.00;;;;;;5006664;28;20081;-72
2023/05/03 10:32:04;;;;;;;2.65;1.52;;;17.40;42.10;;;;;;5010920;28;20061;-71
2023/05/03 10:34:38;;;;;;;1.85;1.42;;;18.10;42.00;;;;;;5013755;28;20116;-70
2023/05/03 10:37:09;;;;;;;3.22;1.63;;;17.90;39.60;;;;;;5009244;28;20404;-71
2023/05/03 10:39:35;;;;;;;3.47;1.42;;;17.00;41.90;;;;;;5003056;28;20042;-71
2023/05/03 10:42:02;;;;;;;3.00;1.30;;;16.50;43.80;;;;;;5011609;28;20057;-70
2023/05/03 10:44:37;;;;;;;3.45;1.60;;;16.20;44.30;;;;;;5006302;28;20362;-71
2023/05/03 10:47:16;;;;;;;1.92;1.40;;;16.00;44.20;;;;;;5024759;28;20046;-69
2023/05/03 10:49:42;;;;;;;3.13;1.67;;;15.60;43.50;;;;;;5005480;28;20070;-71
2023/05/03 10:52:39;;;;;;;3.17;1.90;;;15.10;45.30;;;;;;5012135;28;20658;-71
2023/05/03 10:55:26;;;;;;;3.72;1.70;;;15.10;44.00;;;;;;5006082;28;20048;-71
2023/05/03 10:57:54;;;;;;;5.35;2.20;;;14.60;42.80;;;;;;5008855;28;20041;-71
2023/05/03 11:00:31;;;;;;;2.97;1.80;;;14.40;45.90;;;;;;5006758;28;20053;-72
2023/05/03 11:03:09;;;;;;;4.60;1.73;;;14.40;46.40;;;;;;5009736;28;20049;-71
2023/05/03 11:05:36;;;;;;;4.40;1.65;;;14.10;46.30;;;;;;5020275;28;20065;-71
2023/05/03 11:08:16;;;;;;;2.78;1.80;;;14.50;46.40;;;;;;5014867;28;20045;-72
2023/05/03 11:10:44;;;;;;;2.90;1.55;;;15.20;45.80;;;;;;5029987;28;20053;-72
2023/05/03 11:13:10;;;;;;;3.85;2.20;;;15.50;46.10;;;;;;5024717;28;20123;-71
2023/05/03 11:15:36;;;;;;;4.70;1.95;;;15.70;45.70;;;;;;5020813;28;20041;-72
2023/05/03 11:18:02;;;;;;;3.28;1.70;;;15.60;45.20;;;;;;5016356;28;20521;-71
2023/05/03 11:20:28;;;;;;;2.42;1.80;;;15.50;44.80;;;;;;5028264;28;20148;-70
2023/05/03 11:22:55;;;;;;;4.22;1.85;;;15.40;45.00;;;;;;5015561;28;20152;-71
2023/05/03 11:25:21;;;;;;;2.05;1.85;;;15.20;44.80;;;;;;5010726;28;20080;-72
2023/05/03 11:27:46;;;;;;;5.72;2.08;;;14.80;44.40;;;;;;5016717;28;20034;-72
2023/05/03 11:30:13;;;;;;;4.30;1.80;;;14.50;44.00;;;;;;4998079;28;20044;-71
2023/05/03 11:32:41;;;;;;;9.60;3.95;;;14.50;44.70;;;;;;5018606;28;20525;-70
2023/05/03 11:35:06;;;;;;;7.07;2.33;;;14.70;45.20;;;;;;4995777;28;20440;-70
2023/05/03 11:37:33;;;;;;;5.03;2.33;;;15.10;45.50;;;;;;5022571;28;20038;-71
2023/05/03 11:39:59;;;;;;;5.47;2.20;;;15.60;45.30;;;;;;5021190;28;20123;-71
2023/05/03 11:42:25;;;;;;;5.15;2.00;;;15.40;45.80;;;;;;5012481;28;20054;-71
2023/05/03 11:44:55;;;;;;;2.45;1.55;;;15.30;45.70;;;;;;5014973;28;20060;-71
2023/05/03 11:47:21;;;;;;;3.38;1.73;;;15.20;45.80;;;;;;5012583;28;20038;-70
2023/05/03 11:49:54;;;;;;;2.92;1.90;;;15.00;46.40;;;;;;5009891;28;20133;-71
2023/05/03 11:52:26;;;;;;;2.38;1.50;;;15.10;46.00;;;;;;5006921;28;20057;-71
2023/05/03 11:54:51;;;;;;;4.88;2.03;;;15.10;45.50;;;;;;5016353;28;20049;-73
2023/05/03 11:57:18;;;;;;;4.97;2.42;;;15.10;45.70;;;;;;5014343;28;20381;-72
2023/05/03 11:59:43;;;;;;;3.45;2.13;;;15.10;45.40;;;;;;4996016;28;20057;-71
2023/05/03 12:02:13;;;;;;;4.68;2.10;;;14.70;44.60;;;;;;5014041;28;20034;-72
2023/05/03 12:04:40;;;;;;;4.40;2.05;;;14.80;45.00;;;;;;5021239;28;20374;-72
2023/05/03 12:07:07;;;;;;;2.92;2.00;;;15.00;44.90;;;;;;5027322;28;20448;-71
2023/05/03 12:09:33;;;;;;;4.15;2.10;;;15.00;44.70;;;;;;5028297;28;20120;-72
2023/05/03 12:12:01;;;;;;;4.95;1.85;;;15.20;43.90;;;;;;5026990;28;20049;-72
2023/05/03 12:14:27;;;;;;;3.15;1.50;;;15.20;44.00;;;;;;5029895;28;20049;-73
2023/05/03 12:16:53;;;;;;;3.22;1.67;;;15.60;44.20;;;;;;5009769;28;20146;-72
2023/05/03 12:19:26;;;;;;;1.85;1.50;;;15.50;44.30;;;;;;5030265;28;20045;-71
2023/05/03 12:21:52;;;;;;;3.75;1.88;;;15.70;44.80;;;;;;5011723;28;20037;-72
2023/05/03 12:24:18;;;;;;;4.60;2.20;;;15.90;44.60;;;;;;5029936;28;20496;-71
2023/05/03 12:26:44;;;;;;;3.78;1.90;;;15.80;44.30;;;;;;5006764;28;20087;-73
2023/05/03 12:29:11;;;;;;;2.17;1.70;;;16.00;44.00;;;;;;5008246;28;20033;-73
2023/05/03 12:31:36;;;;;;;2.47;1.60;;;16.20;44.00;;;;;;5046852;28;20042;-72
2023/05/03 12:34:03;;;;;;;3.40;1.80;;;16.60;43.50;;;;;;5008813;28;20068;-72
2023/05/03 12:36:31;;;;;;;3.67;1.90;;;16.80;43.10;;;;;;5016868;28;20087;-72
2023/05/03 12:38:57;;;;;;;3.10;2.00;;;17.00;42.40;;;;;;5013035;28;20115;-73
2023/05/03 12:41:26;;;;;;;4.00;2.30;;;17.20;41.60;;;;;;5030851;28;20038;-72
2023/05/03 12:43:52;;;;;;;6.05;2.10;;;17.80;40.30;;;;;;5018491;28;20034;-73
2023/05/03 12:46:18;;;;;;;5.38;2.15;;;19.30;38.70;;;;;;5014858;28;20077;-73
2023/05/03 12:48:44;;;;;;;3.60;1.73;;;20.10;35.80;;;;;;5030699;28;20096;-73
2023/05/03 12:51:09;;;;;;;4.70;2.72;;;21.80;33.80;;;;;;5012096;28;20405;-72
2023/05/03 12:53:35;;;;;;;3.85;1.90;;;22.80;32.30;;;;;;5014092;28;20492;-73
2023/05/03 12:56:01;;;;;;;3.63;1.48;;;23.00;31.70;;;;;;5015606;28;20486;-72